sensor_id;sensor_type;location;lat;lon;timestamp;pressure;altitude;pressure_sealevel;temperature;humidity
54459;BME280;40368;49.350;8.152;2022-11-15T00:00:16;998.7;;;12.6;62.98
54459;BME280;40368;49.350;8.152;2022-11-15T00:00:52;998.8;;;12.59;63.08
54459;BME280;40368;49.350;8.152;2022-11-15T00:02:07;998.7;;;12.6;62.99
54459;BME280;40368;49.350;8.152;2022-11-15T00:02:44;998.7;;;12.61;62.86
54459;BME280;40368;49.350;8.152;2022-11-15T00:03:58;998.7;;;12.6;63.16
54459;BME280;40368;49.350;8.152;2022-11-15T00:05:12;996.2;;;11;62.88
54459;BME280;40368;49.350;8.152;2022-11-15T00:05:49;998.8;;;12.6;63.11
54459;BME280;40368;49.350;8.152;2022-11-15T00:07:03;998.7;;;12.59;62.97
54459;BME280;40368;49.350;8.152;2022-11-15T00:08:17;998.7;;;12.57;63.43
54459;BME280;40368;49.350;8.152;2022-11-15T00:08:54;998.7;;;12.57;63.84
54459;BME280;40368;49.350;8.152;2022-11-15T00:10:08;998.7;;;12.59;63.26
54459;BME280;40368;49.350;8.152;2022-11-15T00:10:53;998.7;;;12.57;63.31
54459;BME280;40368;49.350;8.152;2022-11-15T00:12:00;998.7;;;12.58;63.37
54459;BME280;40368;49.350;8.152;2022-11-15T00:13:14;998.6;;;12.58;63.39
54459;BME280;40368;49.350;8.152;2022-11-15T00:15:05;998.7;;;12.59;63.33
54459;BME280;40368;49.350;8.152;2022-11-15T00:15:42;998.7;;;12.58;63.31
54459;BME280;40368;49.350;8.152;2022-11-15T00:16:56;998.7;;;12.59;63.28
54459;BME280;40368;49.350;8.152;2022-11-15T00:18:11;998.6;;;12.6;63.34
54459;BME280;40368;49.350;8.152;2022-11-15T00:18:47;998.7;;;12.59;63.29
54459;BME280;40368;49.350;8.152;2022-11-15T00:20:01;998.7;;;12.61;63.37
54459;BME280;40368;49.350;8.152;2022-11-15T00:21:16;998.6;;;12.6;63.27
54459;BME280;40368;49.350;8.152;2022-11-15T00:21:53;998.6;;;12.6;62.98
54459;BME280;40368;49.350;8.152;2022-11-15T00:23:07;998.7;;;12.61;64.36
54459;BME280;40368;49.350;8.152;2022-11-15T00:23:44;998.7;;;12.61;63.36
54459;BME280;40368;49.350;8.152;2022-11-15T00:24:58;998.7;;;12.59;63.37
54459;BME280;40368;49.350;8.152;2022-11-15T00:26:13;998.8;;;12.58;63.49
54459;BME280;40368;49.350;8.152;2022-11-15T00:26:49;998.7;;;12.58;63.58
54459;BME280;40368;49.350;8.152;2022-11-15T00:28:03;998.8;;;12.58;63.38
54459;BME280;40368;49.350;8.152;2022-11-15T00:29:17;998.7;;;12.59;63.57
54459;BME280;40368;49.350;8.152;2022-11-15T00:29:54;998.7;;;12.58;63.75
54459;BME280;40368;49.350;8.152;2022-11-15T00:31:09;998.7;;;12.59;63.54
54459;BME280;40368;49.350;8.152;2022-11-15T00:31:46;998.7;;;12.59;63.63
54459;BME280;40368;49.350;8.152;2022-11-15T00:33:01;998.7;;;12.59;63.91
54459;BME280;40368;49.350;8.152;2022-11-15T00:34:14;998.6;;;12.61;64.73
54459;BME280;40368;49.350;8.152;2022-11-15T00:34:51;998.7;;;12.59;64.02
54459;BME280;40368;49.350;8.152;2022-11-15T00:36:06;998.6;;;12.63;64.37
54459;BME280;40368;49.350;8.152;2022-11-15T00:36:42;998.6;;;12.62;64.67
54459;BME280;40368;49.350;8.152;2022-11-15T00:37:56;998.6;;;12.63;64.55
54459;BME280;40368;49.350;8.152;2022-11-15T00:39:10;998.6;;;12.63;64.47
54459;BME280;40368;49.350;8.152;2022-11-15T00:39:47;998.6;;;12.63;64.44
54459;BME280;40368;49.350;8.152;2022-11-15T00:41:02;998.7;;;12.62;64.59
54459;BME280;40368;49.350;8.152;2022-11-15T00:42:16;998.6;;;12.63;64.48
54459;BME280;40368;49.350;8.152;2022-11-15T00:42:53;998.6;;;12.63;64.57
54459;BME280;40368;49.350;8.152;2022-11-15T00:44:07;998.6;;;12.63;64.58
54459;BME280;40368;49.350;8.152;2022-11-15T00:44:44;999.1;;;12.42;64.69
54459;BME280;40368;49.350;8.152;2022-11-15T00:45:58;998.6;;;12.65;63.48
54459;BME280;40368;49.350;8.152;2022-11-15T00:47:12;998.6;;;12.66;63.49
54459;BME280;40368;49.350;8.152;2022-11-15T00:47:49;1002.7;;;12.02;55.59
54459;BME280;40368;49.350;8.152;2022-11-15T00:50:46;998.6;;;12.63;64.67
54459;BME280;40368;49.350;8.152;2022-11-15T00:52:00;998.6;;;12.62;64.63
54459;BME280;40368;49.350;8.152;2022-11-15T00:53:15;998.6;;;12.63;64.57
54459;BME280;40368;49.350;8.152;2022-11-15T00:53:52;998.6;;;12.62;64.67
54459;BME280;40368;49.350;8.152;2022-11-15T00:55:06;998.6;;;12.63;64.66
54459;BME280;40368;49.350;8.152;2022-11-15T00:55:43;998.5;;;12.63;64.64
54459;BME280;40368;49.350;8.152;2022-11-15T00:56:57;998.5;;;12.64;64.6
54459;BME280;40368;49.350;8.152;2022-11-15T00:58:11;998.5;;;12.66;64.63
54459;BME280;40368;49.350;8.152;2022-11-15T00:58:48;998.5;;;12.64;64.76
54459;BME280;40368;49.350;8.152;2022-11-15T01:00:02;998.5;;;12.65;64.66
54459;BME280;40368;49.350;8.152;2022-11-15T01:01:16;998.5;;;12.65;64.79
54459;BME280;40368;49.350;8.152;2022-11-15T01:01:53;998.5;;;12.64;64.84
54459;BME280;40368;49.350;8.152;2022-11-15T01:03:45;998.5;;;12.66;64.54
54459;BME280;40368;49.350;8.152;2022-11-15T01:04:59;998.5;;;12.66;64.45
54459;BME280;40368;49.350;8.152;2022-11-15T01:06:13;998.5;;;12.62;63.88
54459;BME280;40368;49.350;8.152;2022-11-15T01:06:50;998.5;;;12.65;64.69
54459;BME280;40368;49.350;8.152;2022-11-15T01:08:04;998.5;;;12.61;64.01
54459;BME280;40368;49.350;8.152;2022-11-15T01:09:18;998.5;;;12.62;63.53
54459;BME280;40368;49.350;8.152;2022-11-15T01:09:55;998.5;;;12.61;63.65
54459;BME280;40368;49.350;8.152;2022-11-15T01:11:11;998.4;;;12.62;63.64
54459;BME280;40368;49.350;8.152;2022-11-15T01:11:46;998.5;;;12.62;63.74
54459;BME280;40368;49.350;8.152;2022-11-15T01:13:00;998.4;;;12.63;63.77
54459;BME280;40368;49.350;8.152;2022-11-15T01:14:15;998.4;;;12.63;63.76
54459;BME280;40368;49.350;8.152;2022-11-15T01:14:52;998.4;;;12.63;63.59
54459;BME280;40368;49.350;8.152;2022-11-15T01:16:07;998.4;;;12.64;63.64
54459;BME280;40368;49.350;8.152;2022-11-15T01:16:43;998.6;;;12.63;64.56
54459;BME280;40368;49.350;8.152;2022-11-15T01:19:48;998.5;;;12.62;64.55
54459;BME280;40368;49.350;8.152;2022-11-15T01:21:06;998.5;;;12.62;64.61
54459;BME280;40368;49.350;8.152;2022-11-15T01:22:16;998.4;;;12.61;64.79
54459;BME280;40368;49.350;8.152;2022-11-15T01:22:53;998.4;;;12.6;64.58
54459;BME280;40368;49.350;8.152;2022-11-15T01:24:08;998.4;;;12.61;65.04
54459;BME280;40368;49.350;8.152;2022-11-15T01:24:45;998.4;;;12.61;65.06
54459;BME280;40368;49.350;8.152;2022-11-15T01:25:59;998.4;;;12.61;65.26
54459;BME280;40368;49.350;8.152;2022-11-15T01:27:13;998.4;;;12.61;65.42
54459;BME280;40368;49.350;8.152;2022-11-15T01:27:50;998.4;;;12.6;65.77
54459;BME280;40368;49.350;8.152;2022-11-15T01:29:04;998.4;;;12.62;65.64
54459;BME280;40368;49.350;8.152;2022-11-15T01:30:18;998.4;;;12.64;65.31
54459;BME280;40368;49.350;8.152;2022-11-15T01:30:57;998.4;;;12.62;65.52
54459;BME280;40368;49.350;8.152;2022-11-15T01:32:09;998.4;;;12.67;65.48
54459;BME280;40368;49.350;8.152;2022-11-15T01:32:47;998.4;;;12.67;65.53
54459;BME280;40368;49.350;8.152;2022-11-15T01:34:01;998.3;;;12.67;65.39
54459;BME280;40368;49.350;8.152;2022-11-15T01:35:15;998.4;;;12.7;65.51
54459;BME280;40368;49.350;8.152;2022-11-15T01:35:52;998.3;;;12.68;65.45
54459;BME280;40368;49.350;8.152;2022-11-15T01:37:06;998.3;;;12.71;65.38
54459;BME280;40368;49.350;8.152;2022-11-15T01:38:57;998.3;;;12.73;65.38
54459;BME280;40368;49.350;8.152;2022-11-15T01:40:11;998.3;;;12.75;65.25
54459;BME280;40368;49.350;8.152;2022-11-15T01:40:48;998.3;;;12.74;65.22
54459;BME280;40368;49.350;8.152;2022-11-15T01:42:03;998.2;;;12.74;65.06
54459;BME280;40368;49.350;8.152;2022-11-15T01:43:20;998.2;;;12.77;64.93
54459;BME280;40368;49.350;8.152;2022-11-15T01:43:54;998.2;;;12.74;65.28
54459;BME280;40368;49.350;8.152;2022-11-15T01:45:09;998.1;;;12.79;64.81
54459;BME280;40368;49.350;8.152;2022-11-15T01:45:45;998.2;;;12.78;65.12
54459;BME280;40368;49.350;8.152;2022-11-15T01:47:00;998.2;;;12.81;64.81
54459;BME280;40368;49.350;8.152;2022-11-15T01:48:13;998.1;;;12.81;64.82
54459;BME280;40368;49.350;8.152;2022-11-15T01:49:27;998.1;;;12.81;64.83
54459;BME280;40368;49.350;8.152;2022-11-15T01:51:11;998.1;;;12.81;64.78
54459;BME280;40368;49.350;8.152;2022-11-15T01:51:47;998.1;;;12.81;64.87
54459;BME280;40368;49.350;8.152;2022-11-15T01:53:01;998.1;;;12.82;64.7
54459;BME280;40368;49.350;8.152;2022-11-15T01:54:16;998.1;;;12.82;64.68
54459;BME280;40368;49.350;8.152;2022-11-15T01:54:53;998;;;12.81;64.77
54459;BME280;40368;49.350;8.152;2022-11-15T01:56:07;998.1;;;12.8;64.65
54459;BME280;40368;49.350;8.152;2022-11-15T01:56:45;998.1;;;12.82;64.72
54459;BME280;40368;49.350;8.152;2022-11-15T01:57:59;998.1;;;12.8;64.55
54459;BME280;40368;49.350;8.152;2022-11-15T01:59:12;995.6;;;11.16;64.31
54459;BME280;40368;49.350;8.152;2022-11-15T01:59:49;998.1;;;12.79;64.66
54459;BME280;40368;49.350;8.152;2022-11-15T02:01:03;998.2;;;12.79;64.61
54459;BME280;40368;49.350;8.152;2022-11-15T02:02:17;998.2;;;12.77;64.61
54459;BME280;40368;49.350;8.152;2022-11-15T02:02:54;998.2;;;12.78;64.57
54459;BME280;40368;49.350;8.152;2022-11-15T02:04:10;998.1;;;12.76;64.58
54459;BME280;40368;49.350;8.152;2022-11-15T02:04:46;998.1;;;12.75;64.57
54459;BME280;40368;49.350;8.152;2022-11-15T02:07:51;998.1;;;12.73;64.74
54459;BME280;40368;49.350;8.152;2022-11-15T02:09:05;998.1;;;12.71;64.8
54459;BME280;40368;49.350;8.152;2022-11-15T02:09:42;998.1;;;12.73;64.62
54459;BME280;40368;49.350;8.152;2022-11-15T02:10:56;998;;;12.7;64.78
54459;BME280;40368;49.350;8.152;2022-11-15T02:12:47;997.9;;;12.71;64.67
54459;BME280;40368;49.350;8.152;2022-11-15T02:14:39;997.9;;;12.73;64.46
54459;BME280;40368;49.350;8.152;2022-11-15T02:17:14;997.8;;;12.73;64.56
54459;BME280;40368;49.350;8.152;2022-11-15T02:18:22;997.9;;;12.73;64.54
54459;BME280;40368;49.350;8.152;2022-11-15T02:19:40;997.8;;;12.78;63.73
54459;BME280;40368;49.350;8.152;2022-11-15T02:24:39;997.7;;;12.76;63.86
54459;BME280;40368;49.350;8.152;2022-11-15T02:26:28;997.7;;;12.75;63.67
54459;BME280;40368;49.350;8.152;2022-11-15T02:28:27;997.7;;;12.78;64.7
54459;BME280;40368;49.350;8.152;2022-11-15T02:28:53;997.7;;;12.75;63.62
54459;BME280;40368;49.350;8.152;2022-11-15T02:30:22;997.7;;;12.78;64.54
54459;BME280;40368;49.350;8.152;2022-11-15T02:30:43;997.7;;;12.79;64.51
54459;BME280;40368;49.350;8.152;2022-11-15T02:31:57;997.7;;;12.77;63.5
54459;BME280;40368;49.350;8.152;2022-11-15T02:33:13;997.8;;;12.75;63.84
54459;BME280;40368;49.350;8.152;2022-11-15T02:33:50;997.8;;;12.75;64.61
54459;BME280;40368;49.350;8.152;2022-11-15T02:35:04;997.7;;;12.73;63.83
54459;BME280;40368;49.350;8.152;2022-11-15T02:36:18;997.7;;;12.73;63.88
54459;BME280;40368;49.350;8.152;2022-11-15T02:36:54;997.8;;;12.73;63.87
54459;BME280;40368;49.350;8.152;2022-11-15T02:38:08;997.7;;;12.73;64.16
54459;BME280;40368;49.350;8.152;2022-11-15T02:38:45;998.4;;;12.62;64.5
54459;BME280;40368;49.350;8.152;2022-11-15T02:39:59;997.7;;;12.7;64.76
54459;BME280;40368;49.350;8.152;2022-11-15T02:41:13;997.7;;;12.7;64.64
54459;BME280;40368;49.350;8.152;2022-11-15T02:43:04;997.7;;;12.71;64.09
54459;BME280;40368;49.350;8.152;2022-11-15T02:44:55;997.7;;;12.72;63.84
54459;BME280;40368;49.350;8.152;2022-11-15T02:48:37;997.6;;;12.71;64.14
54459;BME280;40368;49.350;8.152;2022-11-15T02:53:33;997.5;;;12.71;64.76
54459;BME280;40368;49.350;8.152;2022-11-15T02:59:11;997.5;;;12.68;64.72
54459;BME280;40368;49.350;8.152;2022-11-15T03:00:21;997.5;;;12.67;64.89
54459;BME280;40368;49.350;8.152;2022-11-15T03:02:08;997.5;;;12.66;64.95
54459;BME280;40368;49.350;8.152;2022-11-15T03:02:42;997.5;;;12.68;64.9
54459;BME280;40368;49.350;8.152;2022-11-15T03:03:58;997.4;;;12.66;65.01
54459;BME280;40368;49.350;8.152;2022-11-15T03:05:13;997.4;;;12.64;64.95
54459;BME280;40368;49.350;8.152;2022-11-15T03:05:48;997.5;;;12.66;65.05
54459;BME280;40368;49.350;8.152;2022-11-15T03:07:02;997.5;;;12.65;65.05
54459;BME280;40368;49.350;8.152;2022-11-15T03:08:16;997.5;;;12.64;65.05
54459;BME280;40368;49.350;8.152;2022-11-15T03:08:54;997.5;;;12.65;64.9
54459;BME280;40368;49.350;8.152;2022-11-15T03:10:06;997.5;;;12.62;64.95
54459;BME280;40368;49.350;8.152;2022-11-15T03:10:45;997.4;;;12.62;65.1
54459;BME280;40368;49.350;8.152;2022-11-15T03:11:58;997.5;;;12.61;65
54459;BME280;40368;49.350;8.152;2022-11-15T03:13:14;997.5;;;12.61;65.08
54459;BME280;40368;49.350;8.152;2022-11-15T03:13:49;997.5;;;12.61;65.23
54459;BME280;40368;49.350;8.152;2022-11-15T03:15:04;997.5;;;12.61;65.07
54459;BME280;40368;49.350;8.152;2022-11-15T03:16:56;997.5;;;12.61;65.27
54459;BME280;40368;49.350;8.152;2022-11-15T03:18:10;997.4;;;12.58;65.04
54459;BME280;40368;49.350;8.152;2022-11-15T03:18:45;997.5;;;12.59;65.25
54459;BME280;40368;49.350;8.152;2022-11-15T03:19:59;997.4;;;12.57;65.27
54459;BME280;40368;49.350;8.152;2022-11-15T03:21:13;997.4;;;12.58;65.01
54459;BME280;40368;49.350;8.152;2022-11-15T03:21:50;997.3;;;12.58;65.11
54459;BME280;40368;49.350;8.152;2022-11-15T03:23:05;997.4;;;12.57;65.03
54459;BME280;40368;49.350;8.152;2022-11-15T03:24:18;997.4;;;12.56;65.08
54459;BME280;40368;49.350;8.152;2022-11-15T03:24:57;997.4;;;12.57;65.37
54459;BME280;40368;49.350;8.152;2022-11-15T03:26:11;997.4;;;12.56;65.13
54459;BME280;40368;49.350;8.152;2022-11-15T03:26:47;997.4;;;12.56;65.19
54459;BME280;40368;49.350;8.152;2022-11-15T03:28:01;997.5;;;12.56;65.03
54459;BME280;40368;49.350;8.152;2022-11-15T03:29:16;997.5;;;12.58;65.07
54459;BME280;40368;49.350;8.152;2022-11-15T03:29:52;997.5;;;12.57;65.14
54459;BME280;40368;49.350;8.152;2022-11-15T03:31:44;997.5;;;12.57;65.15
54459;BME280;40368;49.350;8.152;2022-11-15T03:32:57;997.5;;;12.57;65.19
54459;BME280;40368;49.350;8.152;2022-11-15T03:34:13;997.5;;;12.58;65.31
54459;BME280;40368;49.350;8.152;2022-11-15T03:34:49;997.4;;;12.57;65.1
54459;BME280;40368;49.350;8.152;2022-11-15T03:37:17;997.5;;;12.58;65.15
54459;BME280;40368;49.350;8.152;2022-11-15T03:37:54;997.4;;;12.57;65.28
54459;BME280;40368;49.350;8.152;2022-11-15T03:39:08;997.5;;;12.59;65.13
54459;BME280;40368;49.350;8.152;2022-11-15T03:39:45;997.5;;;12.58;65.3
54459;BME280;40368;49.350;8.152;2022-11-15T03:40:59;997.5;;;12.59;65.18
54459;BME280;40368;49.350;8.152;2022-11-15T03:42:16;997.5;;;12.61;65.09
54459;BME280;40368;49.350;8.152;2022-11-15T03:42:52;997.4;;;12.6;64.95
54459;BME280;40368;49.350;8.152;2022-11-15T03:44:05;997.5;;;12.62;65.02
54459;BME280;40368;49.350;8.152;2022-11-15T03:45:19;997.5;;;12.62;64.93
54459;BME280;40368;49.350;8.152;2022-11-15T03:47:12;997.5;;;12.61;65.13
54459;BME280;40368;49.350;8.152;2022-11-15T03:47:48;997.5;;;12.61;65.04
54459;BME280;40368;49.350;8.152;2022-11-15T03:49:03;997.4;;;12.6;65.17
54459;BME280;40368;49.350;8.152;2022-11-15T03:50:16;997.5;;;12.61;65.19
54459;BME280;40368;49.350;8.152;2022-11-15T03:52:06;997.4;;;12.61;65.33
54459;BME280;40368;49.350;8.152;2022-11-15T03:52:44;997.4;;;12.6;65.16
54459;BME280;40368;49.350;8.152;2022-11-15T03:53:57;997.4;;;12.62;65.08
54459;BME280;40368;49.350;8.152;2022-11-15T03:55:13;997.4;;;12.63;65.17
54459;BME280;40368;49.350;8.152;2022-11-15T03:55:48;997.5;;;12.62;65.44
54459;BME280;40368;49.350;8.152;2022-11-15T03:57:03;997.4;;;12.62;65.22
54459;BME280;40368;49.350;8.152;2022-11-15T03:58:17;997.5;;;12.63;65.15
54459;BME280;40368;49.350;8.152;2022-11-15T03:58:54;997.5;;;12.63;65.12
54459;BME280;40368;49.350;8.152;2022-11-15T04:00:08;997.4;;;12.65;65.21
54459;BME280;40368;49.350;8.152;2022-11-15T04:01:14;997.4;;;12.65;65.22
54459;BME280;40368;49.350;8.152;2022-11-15T04:01:51;997.4;;;12.65;65.16
54459;BME280;40368;49.350;8.152;2022-11-15T04:03:05;997.4;;;12.64;65.13
54459;BME280;40368;49.350;8.152;2022-11-15T04:04:19;997.4;;;12.66;65.21
54459;BME280;40368;49.350;8.152;2022-11-15T04:04:56;997.4;;;12.65;65.04
54459;BME280;40368;49.350;8.152;2022-11-15T04:06:10;997.4;;;12.66;65.21
54459;BME280;40368;49.350;8.152;2022-11-15T04:06:47;997.3;;;12.65;65.28
54459;BME280;40368;49.350;8.152;2022-11-15T04:08:03;997.4;;;12.65;65.2
54459;BME280;40368;49.350;8.152;2022-11-15T04:09:16;997.5;;;12.67;65.04
54459;BME280;40368;49.350;8.152;2022-11-15T04:09:53;997.4;;;12.65;65.13
54459;BME280;40368;49.350;8.152;2022-11-15T04:11:07;997.5;;;12.66;65.19
54459;BME280;40368;49.350;8.152;2022-11-15T04:11:44;997.6;;;12.72;63.81
54459;BME280;40368;49.350;8.152;2022-11-15T04:12:58;997.5;;;12.68;64.53
54459;BME280;40368;49.350;8.152;2022-11-15T04:14:12;997.5;;;12.68;64.39
54459;BME280;40368;49.350;8.152;2022-11-15T04:14:49;997.7;;;12.71;63.92
54459;BME280;40368;49.350;8.152;2022-11-15T04:16:03;997.5;;;12.67;65.1
54459;BME280;40368;49.350;8.152;2022-11-15T04:17:55;997.5;;;12.67;65.36
54459;BME280;40368;49.350;8.152;2022-11-15T04:19:46;997.4;;;12.66;65.21
54459;BME280;40368;49.350;8.152;2022-11-15T04:21:00;997.4;;;12.67;65.06
54459;BME280;40368;49.350;8.152;2022-11-15T04:22:14;997.4;;;12.65;64.55
54459;BME280;40368;49.350;8.152;2022-11-15T04:22:52;997.5;;;12.68;65.19
54459;BME280;40368;49.350;8.152;2022-11-15T04:24:06;997.4;;;12.64;64.36
54459;BME280;40368;49.350;8.152;2022-11-15T04:25:19;997.4;;;12.68;65.39
54459;BME280;40368;49.350;8.152;2022-11-15T04:25:57;997.3;;;12.64;64.27
54459;BME280;40368;49.350;8.152;2022-11-15T04:27:10;997.4;;;12.7;65.32
54459;BME280;40368;49.350;8.152;2022-11-15T04:27:47;997.4;;;12.7;65.02
54459;BME280;40368;49.350;8.152;2022-11-15T04:29:02;997.4;;;12.71;65.14
54459;BME280;40368;49.350;8.152;2022-11-15T04:30:16;997.3;;;12.7;65.29
54459;BME280;40368;49.350;8.152;2022-11-15T04:30:53;997.3;;;12.7;65.2
54459;BME280;40368;49.350;8.152;2022-11-15T04:32:07;997.2;;;12.68;65.19
54459;BME280;40368;49.350;8.152;2022-11-15T04:32:44;997.3;;;12.69;65.24
54459;BME280;40368;49.350;8.152;2022-11-15T04:33:58;997.2;;;12.69;65.42
54459;BME280;40368;49.350;8.152;2022-11-15T04:35:12;997.1;;;12.69;65.2
54459;BME280;40368;49.350;8.152;2022-11-15T04:35:49;997.5;;;12.67;65.29
54459;BME280;40368;49.350;8.152;2022-11-15T04:37:03;997.2;;;12.71;64.73
54459;BME280;40368;49.350;8.152;2022-11-15T04:38:55;997.2;;;12.69;65.01
54459;BME280;40368;49.350;8.152;2022-11-15T04:40:46;997.2;;;12.69;64.47
54459;BME280;40368;49.350;8.152;2022-11-15T04:42:00;997.2;;;12.7;64.63
54459;BME280;40368;49.350;8.152;2022-11-15T04:43:14;997.2;;;12.71;64.65
54459;BME280;40368;49.350;8.152;2022-11-15T04:45:05;997.3;;;12.71;64.5
54459;BME280;40368;49.350;8.152;2022-11-15T04:46:19;997.2;;;12.7;64.4
54459;BME280;40368;49.350;8.152;2022-11-15T04:46:56;997.2;;;12.7;64.6
54459;BME280;40368;49.350;8.152;2022-11-15T04:48:11;997.2;;;12.71;64.92
54459;BME280;40368;49.350;8.152;2022-11-15T04:48:48;997.2;;;12.72;64.65
54459;BME280;40368;49.350;8.152;2022-11-15T04:50:02;997.2;;;12.71;64.51
54459;BME280;40368;49.350;8.152;2022-11-15T04:51:16;997.2;;;12.72;64.38
54459;BME280;40368;49.350;8.152;2022-11-15T04:51:53;997.3;;;12.71;64.47
54459;BME280;40368;49.350;8.152;2022-11-15T04:53:07;997.2;;;12.71;64.86
54459;BME280;40368;49.350;8.152;2022-11-15T04:53:44;997.2;;;12.71;64.68
54459;BME280;40368;49.350;8.152;2022-11-15T04:56:12;997.2;;;12.71;64.82
54459;BME280;40368;49.350;8.152;2022-11-15T04:56:49;997.2;;;12.71;64.46
54459;BME280;40368;49.350;8.152;2022-11-15T04:58:03;997.2;;;12.71;64.96
54459;BME280;40368;49.350;8.152;2022-11-15T04:59:18;997.2;;;12.71;64.99
54459;BME280;40368;49.350;8.152;2022-11-15T04:59:55;997.2;;;12.7;65.08
54459;BME280;40368;49.350;8.152;2022-11-15T05:00:32;997.2;;;12.71;66.1
54459;BME280;40368;49.350;8.152;2022-11-15T05:01:38;997.2;;;12.71;66.19
54459;BME280;40368;49.350;8.152;2022-11-15T05:02:52;997.1;;;12.7;66.98
54459;BME280;40368;49.350;8.152;2022-11-15T05:04:06;997.2;;;12.71;66.3
54459;BME280;40368;49.350;8.152;2022-11-15T05:04:43;997.1;;;12.7;66.27
54459;BME280;40368;49.350;8.152;2022-11-15T05:05:57;997.1;;;12.71;66.02
54459;BME280;40368;49.350;8.152;2022-11-15T05:07:11;997.1;;;12.74;66.12
54459;BME280;40368;49.350;8.152;2022-11-15T05:07:48;997.1;;;12.74;65.42
54459;BME280;40368;49.350;8.152;2022-11-15T05:09:02;997.1;;;12.73;66.51
54459;BME280;40368;49.350;8.152;2022-11-15T05:10:17;997.1;;;12.74;66.72
54459;BME280;40368;49.350;8.152;2022-11-15T05:10:54;997.1;;;12.74;65.76
54459;BME280;40368;49.350;8.152;2022-11-15T05:12:08;997.1;;;12.74;66.43
54459;BME280;40368;49.350;8.152;2022-11-15T05:12:46;997.1;;;12.75;66.45
54459;BME280;40368;49.350;8.152;2022-11-15T05:13:59;997.1;;;12.75;65.84
54459;BME280;40368;49.350;8.152;2022-11-15T05:15:13;997.1;;;12.78;65.49
54459;BME280;40368;49.350;8.152;2022-11-15T05:15:50;997.1;;;12.77;65.45
54459;BME280;40368;49.350;8.152;2022-11-15T05:17:04;997.1;;;12.8;65.47
54459;BME280;40368;49.350;8.152;2022-11-15T05:18:18;997.1;;;12.81;65.12
54459;BME280;40368;49.350;8.152;2022-11-15T05:18:55;997.1;;;12.8;65.26
54459;BME280;40368;49.350;8.152;2022-11-15T05:20:10;997.1;;;12.82;65.02
54459;BME280;40368;49.350;8.152;2022-11-15T05:20:47;997.1;;;12.82;65.18
54459;BME280;40368;49.350;8.152;2022-11-15T05:22:01;997.1;;;12.84;65.27
54459;BME280;40368;49.350;8.152;2022-11-15T05:23:15;997;;;12.83;64.94
54459;BME280;40368;49.350;8.152;2022-11-15T05:23:52;997.1;;;12.84;65.07
54459;BME280;40368;49.350;8.152;2022-11-15T05:25:06;997.1;;;12.87;64.93
54459;BME280;40368;49.350;8.152;2022-11-15T05:25:43;997;;;12.86;64.81
54459;BME280;40368;49.350;8.152;2022-11-15T05:26:57;997;;;12.88;64.79
54459;BME280;40368;49.350;8.152;2022-11-15T05:28:12;996.9;;;12.89;64.83
54459;BME280;40368;49.350;8.152;2022-11-15T05:28:51;997;;;12.88;64.62
54459;BME280;40368;49.350;8.152;2022-11-15T05:30:03;996.9;;;12.88;65.04
54459;BME280;40368;49.350;8.152;2022-11-15T05:31:17;996.9;;;12.86;64.58
54459;BME280;40368;49.350;8.152;2022-11-15T05:31:54;996.9;;;12.87;64.72
54459;BME280;40368;49.350;8.152;2022-11-15T05:33:08;996.9;;;12.87;64.61
54459;BME280;40368;49.350;8.152;2022-11-15T05:33:45;996.9;;;12.86;64.78
54459;BME280;40368;49.350;8.152;2022-11-15T05:34:59;996.9;;;12.87;64.55
54459;BME280;40368;49.350;8.152;2022-11-15T05:36:14;996.9;;;12.87;64.36
54459;BME280;40368;49.350;8.152;2022-11-15T05:36:50;996.9;;;12.87;64.56
54459;BME280;40368;49.350;8.152;2022-11-15T05:38:04;996.9;;;12.88;64.44
54459;BME280;40368;49.350;8.152;2022-11-15T05:39:18;996.9;;;12.88;64.32
54459;BME280;40368;49.350;8.152;2022-11-15T05:39:55;996.9;;;12.89;64.3
54459;BME280;40368;49.350;8.152;2022-11-15T05:41:10;996.9;;;12.88;64.47
54459;BME280;40368;49.350;8.152;2022-11-15T05:41:48;996.9;;;12.88;64.32
54459;BME280;40368;49.350;8.152;2022-11-15T05:43:01;996.8;;;12.88;64.6
54459;BME280;40368;49.350;8.152;2022-11-15T05:44:52;996.8;;;12.88;64.45
54459;BME280;40368;49.350;8.152;2022-11-15T05:46:06;996.8;;;12.87;64.45
54459;BME280;40368;49.350;8.152;2022-11-15T05:46:43;996.8;;;12.87;64.42
54459;BME280;40368;49.350;8.152;2022-11-15T05:47:57;996.8;;;12.86;64.59
54459;BME280;40368;49.350;8.152;2022-11-15T05:49:48;996.7;;;12.87;64.54
54459;BME280;40368;49.350;8.152;2022-11-15T05:51:03;996.8;;;12.85;64.64
54459;BME280;40368;49.350;8.152;2022-11-15T05:52:18;996.8;;;12.84;64.5
54459;BME280;40368;49.350;8.152;2022-11-15T05:52:55;996.8;;;12.84;64.55
54459;BME280;40368;49.350;8.152;2022-11-15T05:54:45;996.8;;;12.83;64.58
54459;BME280;40368;49.350;8.152;2022-11-15T05:56:36;996.9;;;12.81;64.64
54459;BME280;40368;49.350;8.152;2022-11-15T06:01:33;996.9;;;12.79;64.52
54459;BME280;40368;49.350;8.152;2022-11-15T06:06:29;996.9;;;12.77;64.72
54459;BME280;40368;49.350;8.152;2022-11-15T06:08:20;996.9;;;12.75;65.07
54459;BME280;40368;49.350;8.152;2022-11-15T06:10:12;996.9;;;12.75;64.97
54459;BME280;40368;49.350;8.152;2022-11-15T06:11:55;996.9;;;12.72;64.79
54459;BME280;40368;49.350;8.152;2022-11-15T06:13:09;996.9;;;12.71;64.99
54459;BME280;40368;49.350;8.152;2022-11-15T06:15:00;996.9;;;12.7;64.6
54459;BME280;40368;49.350;8.152;2022-11-15T06:16:14;996.8;;;12.68;64.54
54459;BME280;40368;49.350;8.152;2022-11-15T06:16:51;996.9;;;12.69;64.78
54459;BME280;40368;49.350;8.152;2022-11-15T06:18:05;996.9;;;12.68;64.34
54459;BME280;40368;49.350;8.152;2022-11-15T06:18:42;996.9;;;12.69;64.43
54459;BME280;40368;49.350;8.152;2022-11-15T06:19:56;996.9;;;12.72;65.49
54459;BME280;40368;49.350;8.152;2022-11-15T06:21:10;996.9;;;12.72;65.18
54459;BME280;40368;49.350;8.152;2022-11-15T06:21:48;996.9;;;12.71;65.19
54459;BME280;40368;49.350;8.152;2022-11-15T06:23:03;996.9;;;12.72;65.16
54459;BME280;40368;49.350;8.152;2022-11-15T06:24:16;996.9;;;12.71;65.01
54459;BME280;40368;49.350;8.152;2022-11-15T06:24:53;996.9;;;12.71;65.02
54459;BME280;40368;49.350;8.152;2022-11-15T06:26:07;996.9;;;12.7;64.93
54459;BME280;40368;49.350;8.152;2022-11-15T06:26:44;996.9;;;12.7;65.13
54459;BME280;40368;49.350;8.152;2022-11-15T06:27:58;996.9;;;12.69;65.21
54459;BME280;40368;49.350;8.152;2022-11-15T06:29:12;996.8;;;12.66;65.04
54459;BME280;40368;49.350;8.152;2022-11-15T06:29:49;996.8;;;12.69;64.98